createdAt,value
2019-04-19T00:01:55.324Z,8.40
2019-04-19T00:04:20.275Z,8.40
2019-04-19T00:07:02.022Z,8.30
2019-04-19T00:09:36.216Z,8.30
2019-04-19T00:12:09.192Z,8.20
2019-04-19T00:14:25.741Z,8.30
2019-04-19T00:16:57.470Z,8.20
2019-04-19T00:19:49.502Z,8.30
2019-04-19T00:22:18.518Z,8.30
2019-04-19T00:24:30.518Z,8.30
2019-04-19T00:27:02.257Z,8.10
2019-04-19T00:29:42.855Z,8.00
2019-04-19T00:32:18.858Z,8.00
2019-04-19T00:34:35.586Z,7.90
2019-04-19T00:37:05.786Z,8.00
2019-04-19T00:40:07.557Z,7.90
2019-04-19T00:42:47.951Z,7.90
2019-04-19T00:45:26.422Z,7.90
2019-04-19T00:47:58.665Z,8.00
2019-04-19T00:50:26.836Z,8.00
2019-04-19T00:53:02.919Z,7.90
2019-04-19T00:55:25.746Z,7.90
2019-04-19T00:57:58.026Z,7.90
2019-04-19T01:00:25.995Z,7.90
2019-04-19T01:02:56.073Z,7.90
2019-04-19T01:05:27.676Z,7.90
2019-04-19T01:07:55.674Z,7.80
2019-04-19T01:10:36.854Z,7.80
2019-04-19T01:13:09.910Z,7.70
2019-04-19T01:15:36.526Z,7.60
2019-04-19T01:18:15.274Z,7.60
2019-04-19T01:20:31.152Z,7.60
2019-04-19T01:23:07.427Z,7.60
2019-04-19T01:25:33.641Z,7.50
2019-04-19T01:28:10.974Z,7.50
2019-04-19T01:30:38.471Z,7.50
2019-04-19T01:33:07.097Z,7.40
2019-04-19T01:35:41.091Z,7.40
2019-04-19T01:38:10.178Z,7.30
2019-04-19T01:40:59.193Z,7.20
2019-04-19T01:43:27.839Z,7.20
2019-04-19T01:46:09.289Z,7.20
2019-04-19T01:49:14.164Z,7.30
2019-04-19T01:52:22.396Z,7.30
2019-04-19T01:54:47.644Z,7.30
2019-04-19T01:57:05.435Z,7.40
2019-04-19T01:59:39.842Z,7.50
2019-04-19T02:02:09.468Z,7.50
2019-04-19T02:04:36.526Z,7.40
2019-04-19T02:07:12.626Z,7.30
2019-04-19T02:09:57.473Z,7.20
2019-04-19T02:12:22.433Z,7.20
2019-04-19T02:15:04.792Z,7.10
2019-04-19T02:17:37.255Z,6.90
2019-04-19T02:20:04.120Z,6.90
2019-04-19T02:22:36.079Z,6.80
2019-04-19T02:25:03.869Z,6.80
2019-04-19T02:27:40.060Z,6.80
2019-04-19T02:30:15.886Z,6.80
2019-04-19T02:32:55.681Z,6.80
2019-04-19T02:35:31.803Z,6.80
2019-04-19T02:38:04.274Z,6.80
2019-04-19T02:40:52.334Z,6.80
2019-04-19T02:43:10.609Z,6.70
2019-04-19T02:45:44.324Z,6.60
2019-04-19T02:48:13.269Z,6.60
2019-04-19T02:55:45.786Z,6.70
2019-04-19T03:01:17.272Z,6.60
2019-04-19T03:03:27.416Z,6.50
2019-04-19T03:05:57.104Z,6.40
2019-04-19T03:08:10.639Z,6.40
2019-04-19T03:10:53.513Z,6.40
2019-04-19T03:13:29.641Z,6.40
2019-04-19T03:15:58.321Z,6.40
2019-04-19T03:18:30.770Z,6.60
2019-04-19T03:20:54.188Z,6.70
2019-04-19T03:23:26.226Z,6.70
2019-04-19T03:25:54.691Z,6.70
2019-04-19T03:28:26.672Z,6.70
2019-04-19T03:31:20.429Z,6.60
2019-04-19T03:36:11.999Z,6.30
2019-04-19T03:38:40.344Z,6.30
2019-04-19T03:41:18.893Z,6.20
2019-04-19T03:43:51.789Z,6.20
2019-04-19T03:46:21.442Z,6.20
2019-04-19T03:48:51.828Z,6.20
2019-04-19T03:51:24.248Z,6.30
2019-04-19T03:54:14.423Z,6.20
2019-04-19T03:56:30.318Z,6.20
2019-04-19T03:58:41.804Z,6.10
2019-04-19T04:01:12.822Z,6.20
2019-04-19T04:03:46.677Z,6.30
2019-04-19T04:06:23.057Z,6.30
2019-04-19T04:08:53.659Z,6.40
2019-04-19T04:11:29.545Z,6.40
2019-04-19T04:14:15.012Z,6.30
2019-04-19T04:16:53.775Z,6.30
2019-04-19T04:19:23.064Z,6.20
2019-04-19T04:21:54.002Z,6.20
2019-04-19T04:24:32.040Z,6.30
2019-04-19T04:27:05.857Z,6.30
2019-04-19T04:29:34.734Z,6.30
2019-04-19T04:32:11.346Z,6.30
2019-04-19T04:34:40.934Z,6.30
2019-04-19T04:37:17.011Z,6.20
2019-04-19T04:39:32.330Z,6.30
2019-04-19T04:42:11.324Z,6.30
2019-04-19T04:45:01.732Z,6.40
2019-04-19T04:47:39.357Z,6.50
2019-04-19T04:50:19.456Z,6.50
2019-04-19T04:52:40.523Z,6.50
2019-04-19T04:55:15.870Z,6.50
2019-04-19T04:57:52.141Z,6.50
2019-04-19T05:00:20.368Z,6.60
2019-04-19T05:03:06.114Z,6.70
2019-04-19T05:05:35.729Z,6.80
2019-04-19T05:08:14.594Z,6.80
2019-04-19T05:10:35.950Z,6.90
2019-04-19T05:13:19.672Z,7.00
2019-04-19T05:15:43.399Z,7.00
2019-04-19T05:20:41.057Z,7.00
2019-04-19T05:23:14.629Z,7.20
2019-04-19T05:25:51.395Z,7.20
2019-04-19T05:28:16.767Z,7.30
2019-04-19T05:30:41.184Z,7.30
2019-04-19T05:33:14.109Z,7.30
2019-04-19T05:35:52.369Z,7.40
2019-04-19T05:38:44.945Z,7.50
2019-04-19T05:41:29.745Z,7.50
2019-04-19T05:44:37.158Z,7.70
2019-04-19T05:47:01.427Z,7.90
2019-04-19T05:49:28.091Z,8.00
2019-04-19T05:52:02.129Z,8.10
2019-04-19T05:54:16.992Z,8.20
2019-04-19T05:56:53.245Z,8.30
2019-04-19T05:59:30.581Z,8.40
2019-04-19T06:02:02.226Z,8.50
2019-04-19T06:04:38.974Z,8.70
2019-04-19T06:07:10.487Z,8.80
2019-04-19T06:09:21.910Z,9.00
2019-04-19T06:11:53.239Z,9.10
2019-04-19T06:14:45.407Z,9.20
2019-04-19T06:17:48.781Z,9.40
2019-04-19T06:20:16.317Z,9.40
2019-04-19T06:22:53.470Z,9.60
2019-04-19T06:25:24.708Z,9.70
2019-04-19T06:28:09.372Z,9.70
2019-04-19T06:30:27.250Z,9.90
2019-04-19T06:32:56.277Z,10.00
2019-04-19T06:35:22.153Z,10.10
2019-04-19T06:37:41.978Z,10.20
2019-04-19T06:40:19.745Z,10.20
2019-04-19T06:42:54.287Z,10.30
2019-04-19T06:45:32.220Z,10.40
2019-04-19T06:47:54.289Z,10.50
2019-04-19T06:50:25.769Z,10.60
2019-04-19T06:52:48.998Z,10.70
2019-04-19T06:55:25.995Z,10.70
2019-04-19T06:57:58.966Z,10.80
2019-04-19T07:00:34.957Z,10.90
2019-04-19T07:02:54.195Z,11.00
2019-04-19T07:05:37.327Z,11.10
2019-04-19T07:08:29.978Z,11.20
2019-04-19T07:10:51.507Z,11.20
2019-04-19T07:13:16.195Z,11.30
2019-04-19T07:15:59.989Z,11.50
2019-04-19T07:18:19.035Z,11.50
2019-04-19T07:20:54.699Z,11.60
2019-04-19T07:23:26.124Z,11.70
2019-04-19T07:26:00.062Z,11.80
2019-04-19T07:28:12.427Z,11.90
2019-04-19T07:30:37.394Z,12.10
2019-04-19T07:33:12.972Z,12.20
2019-04-19T07:36:01.911Z,12.30
2019-04-19T07:38:29.079Z,12.40
2019-04-19T07:41:01.190Z,12.40
2019-04-19T07:43:28.867Z,12.50
2019-04-19T07:46:14.081Z,12.60
2019-04-19T07:48:36.569Z,12.70
2019-04-19T07:51:13.437Z,12.80
2019-04-19T07:53:44.307Z,12.90
2019-04-19T07:56:23.918Z,13.00
2019-04-19T07:59:07.863Z,13.10
2019-04-19T08:01:45.689Z,13.20
2019-04-19T08:04:19.900Z,13.30
2019-04-19T08:09:11.340Z,13.60
2019-04-19T08:14:35.839Z,13.80
2019-04-19T08:17:26.359Z,13.90
2019-04-19T08:29:07.170Z,14.40
2019-04-19T08:31:25.675Z,14.50
2019-04-19T08:33:55.220Z,14.70
2019-04-19T08:36:32.192Z,14.80
2019-04-19T08:39:17.108Z,15.00
2019-04-19T08:41:46.845Z,15.10
2019-04-19T08:44:18.151Z,15.30
2019-04-19T08:46:43.027Z,15.40
2019-04-19T08:49:28.399Z,15.50
2019-04-19T08:52:00.011Z,15.70
2019-04-19T08:54:56.509Z,15.70
2019-04-19T08:57:08.103Z,15.80
2019-04-19T08:59:53.812Z,16.00
2019-04-19T09:02:24.966Z,16.00
2019-04-19T09:04:55.124Z,16.10
2019-04-19T09:10:17.778Z,16.30
2019-04-19T09:12:30.856Z,16.40
2019-04-19T09:15:09.655Z,16.60
2019-04-19T09:17:59.334Z,16.70
2019-04-19T09:20:15.286Z,16.90
2019-04-19T09:22:37.190Z,17.00
2019-04-19T09:25:06.614Z,17.00
2019-04-19T09:27:52.219Z,17.10
2019-04-19T09:30:24.181Z,17.10
2019-04-19T09:32:35.965Z,17.30
2019-04-19T09:35:09.285Z,17.50
2019-04-19T09:37:47.700Z,17.70
2019-04-19T09:40:13.836Z,17.80
2019-04-19T09:42:51.081Z,17.90
2019-04-19T09:45:12.574Z,18.00
2019-04-19T09:47:42.580Z,17.90
2019-04-19T09:50:30.268Z,18.00
2019-04-19T09:53:10.450Z,18.10
2019-04-19T09:55:42.589Z,18.30
2019-04-19T09:58:08.839Z,18.40
2019-04-19T10:00:28.147Z,18.50
2019-04-19T10:03:02.784Z,18.70
2019-04-19T10:05:28.612Z,18.80
2019-04-19T10:07:59.673Z,18.90
2019-04-19T10:10:31.144Z,19.10
2019-04-19T10:13:03.589Z,19.30
2019-04-19T10:15:42.860Z,19.40
2019-04-19T10:18:14.524Z,19.50
2019-04-19T10:21:19.306Z,19.60
2019-04-19T10:23:41.469Z,19.70
2019-04-19T10:26:20.099Z,19.80
2019-04-19T10:28:50.865Z,19.90
2019-04-19T10:31:29.505Z,20.10
2019-04-19T10:34:02.996Z,20.30
2019-04-19T10:36:33.105Z,20.40
2019-04-19T10:39:03.497Z,20.60
2019-04-19T10:41:34.206Z,20.70
2019-04-19T10:44:13.217Z,20.80
2019-04-19T10:46:36.797Z,21.00
2019-04-19T10:49:14.343Z,21.20
2019-04-19T10:51:43.861Z,21.40
2019-04-19T10:54:14.862Z,21.50
2019-04-19T10:56:56.465Z,21.60
2019-04-19T10:59:27.388Z,21.50
2019-04-19T11:01:57.760Z,21.70
2019-04-19T11:04:28.874Z,21.70
2019-04-19T11:06:59.826Z,21.90
2019-04-19T11:09:31.166Z,22.10
2019-04-19T11:12:01.791Z,22.20
2019-04-19T11:14:34.341Z,22.40
2019-04-19T11:17:07.449Z,22.60
2019-04-19T11:19:49.697Z,22.70
2019-04-19T11:22:09.772Z,22.80
2019-04-19T11:24:41.556Z,22.90
2019-04-19T11:27:13.209Z,22.90
2019-04-19T11:29:44.769Z,22.90
2019-04-19T11:32:26.034Z,22.90
2019-04-19T11:34:56.254Z,23.00
2019-04-19T11:37:27.300Z,23.00
2019-04-19T11:39:57.698Z,23.10
2019-04-19T11:42:27.805Z,23.30
2019-04-19T11:44:59.357Z,23.30
2019-04-19T11:47:29.534Z,23.40
2019-04-19T11:50:00.214Z,23.60
2019-04-19T11:52:39.760Z,23.60
2019-04-19T11:55:10.694Z,23.80
2019-04-19T11:57:48.361Z,23.90
2019-04-19T12:00:38.011Z,23.90
2019-04-19T12:03:09.827Z,24.00
2019-04-19T12:05:40.040Z,24.00
2019-04-19T12:08:10.648Z,24.00
2019-04-19T12:10:40.655Z,24.10
2019-04-19T12:13:11.007Z,24.30
2019-04-19T12:15:42.186Z,24.30
2019-04-19T12:18:12.559Z,24.30
2019-04-19T12:20:42.906Z,24.30
2019-04-19T12:23:13.830Z,24.30
2019-04-19T12:25:45.802Z,24.30
2019-04-19T12:28:16.054Z,24.30
2019-04-19T12:30:50.566Z,24.40
2019-04-19T12:33:19.441Z,24.90
2019-04-19T12:35:49.763Z,25.20
2019-04-19T12:38:19.957Z,25.30
2019-04-19T12:40:58.210Z,25.30
2019-04-19T12:43:29.933Z,25.40
2019-04-19T12:46:01.081Z,25.60
2019-04-19T12:48:31.988Z,25.70
2019-04-19T12:51:02.289Z,25.60
2019-04-19T12:53:32.911Z,25.60
2019-04-19T12:56:04.128Z,25.80
2019-04-19T12:58:35.792Z,25.90
2019-04-19T13:01:21.873Z,26.00
2019-04-19T13:04:04.374Z,26.10
2019-04-19T13:06:35.898Z,26.20
2019-04-19T13:09:08.935Z,26.50
2019-04-19T13:11:41.081Z,26.60
2019-04-19T13:14:12.121Z,26.50
2019-04-19T13:16:44.051Z,26.50
2019-04-19T13:19:19.403Z,26.50
2019-04-19T13:21:48.872Z,26.70
2019-04-19T13:24:20.412Z,27.10
2019-04-19T13:26:51.695Z,27.10
2019-04-19T13:29:21.269Z,27.10
2019-04-19T13:31:52.463Z,27.00
2019-04-19T13:34:25.224Z,27.00
2019-04-19T13:37:29.546Z,27.00
2019-04-19T13:40:19.865Z,27.20
2019-04-19T13:42:52.535Z,27.30
2019-04-19T13:45:29.627Z,27.10
2019-04-19T13:47:56.957Z,27.10
2019-04-19T13:50:33.151Z,27.30
2019-04-19T13:52:58.890Z,27.20
2019-04-19T13:55:29.073Z,27.10
2019-04-19T13:57:59.770Z,27.10
2019-04-19T14:00:46.782Z,27.30
2019-04-19T14:03:23.703Z,27.20
2019-04-19T14:05:54.772Z,27.10
2019-04-19T14:08:25.238Z,27.10
2019-04-19T14:10:57.101Z,27.10
2019-04-19T14:13:27.390Z,27.40
2019-04-19T14:15:58.811Z,27.80
2019-04-19T14:18:30.869Z,28.20
2019-04-19T14:21:01.507Z,28.30
2019-04-19T14:23:33.247Z,28.20
2019-04-19T14:26:05.379Z,28.10
2019-04-19T14:28:35.894Z,28.20
2019-04-19T14:31:06.773Z,28.50
2019-04-19T14:33:37.295Z,28.40
2019-04-19T14:36:08.171Z,28.70
2019-04-19T14:38:41.299Z,28.80
2019-04-19T14:41:11.825Z,29.10
2019-04-19T14:43:42.748Z,29.20
2019-04-19T14:46:14.295Z,29.40
2019-04-19T14:48:47.281Z,29.70
2019-04-19T14:51:24.681Z,29.70
2019-04-19T14:53:49.752Z,29.70
2019-04-19T14:56:20.017Z,29.60
2019-04-19T14:58:50.840Z,29.40
2019-04-19T15:01:35.051Z,29.50
2019-04-19T15:04:10.966Z,29.90
2019-04-19T15:06:41.892Z,29.50
2019-04-19T15:09:12.100Z,29.40
2019-04-19T15:11:43.447Z,29.40
2019-04-19T15:14:14.453Z,29.60
2019-04-19T15:16:45.384Z,29.30
2019-04-19T15:19:16.733Z,29.40
2019-04-19T15:21:46.514Z,29.50
2019-04-19T15:24:16.886Z,29.60
2019-04-19T15:26:47.435Z,29.60
2019-04-19T15:29:18.862Z,29.70
2019-04-19T15:31:48.648Z,29.60
2019-04-19T15:34:19.985Z,29.30
2019-04-19T15:36:49.921Z,29.10
2019-04-19T15:39:19.772Z,29.00
2019-04-19T15:41:50.641Z,28.80
2019-04-19T15:44:20.741Z,28.50
2019-04-19T15:46:50.126Z,28.40
2019-04-19T15:49:21.731Z,28.40
2019-04-19T15:51:52.019Z,28.20
2019-04-19T15:54:21.976Z,28.40
2019-04-19T15:56:52.110Z,28.40
2019-04-19T15:59:24.979Z,28.40
2019-04-19T16:02:11.602Z,28.30
2019-04-19T16:04:59.798Z,28.10
2019-04-19T16:07:35.935Z,28.10
2019-04-19T16:10:19.795Z,27.90
2019-04-19T16:12:49.933Z,27.80
2019-04-19T16:15:20.119Z,28.00
2019-04-19T16:17:50.270Z,27.80
2019-04-19T16:20:21.147Z,27.70
2019-04-19T16:22:52.020Z,27.80
2019-04-19T16:25:23.245Z,27.60
2019-04-19T16:27:53.566Z,27.50
2019-04-19T16:30:24.051Z,27.20
2019-04-19T16:32:55.050Z,26.90
2019-04-19T16:35:26.407Z,26.60
2019-04-19T16:37:57.492Z,26.00
2019-04-19T16:40:28.104Z,25.20
2019-04-19T16:42:59.279Z,24.40
2019-04-19T16:45:30.184Z,23.80
2019-04-19T16:48:00.155Z,23.30
2019-04-19T16:50:30.497Z,22.90
2019-04-19T16:53:03.167Z,22.60
2019-04-19T16:55:31.717Z,22.30
2019-04-19T16:58:02.837Z,22.10
2019-04-19T17:00:42.996Z,21.80
2019-04-19T17:03:14.095Z,21.60
2019-04-19T17:05:44.647Z,21.50
2019-04-19T17:08:15.558Z,21.30
2019-04-19T17:10:46.852Z,21.20
2019-04-19T17:13:17.009Z,21.00
2019-04-19T17:16:11.734Z,20.90
2019-04-19T17:19:03.180Z,20.80
2019-04-19T17:21:45.206Z,20.60
2019-04-19T17:24:05.037Z,20.50
2019-04-19T17:26:35.234Z,20.40
2019-04-19T17:29:06.565Z,20.20
2019-04-19T17:31:36.696Z,20.10
2019-04-19T17:34:26.336Z,20.00
2019-04-19T17:36:56.350Z,19.90
2019-04-19T17:39:26.736Z,19.70
2019-04-19T17:41:56.765Z,19.50
2019-04-19T17:44:26.053Z,19.40
2019-04-19T17:46:56.365Z,19.20
2019-04-19T17:49:26.617Z,19.10
2019-04-19T17:52:04.716Z,18.90
2019-04-19T17:54:43.153Z,18.70
2019-04-19T17:56:59.514Z,18.50
2019-04-19T17:59:30.199Z,18.30
2019-04-19T18:02:01.233Z,18.10
2019-04-19T18:04:33.114Z,18.00
2019-04-19T18:07:04.617Z,17.70
2019-04-19T18:09:33.349Z,17.60
2019-04-19T18:12:03.132Z,17.60
2019-04-19T18:14:33.721Z,17.40
2019-04-19T18:17:03.573Z,17.40
2019-04-19T18:19:36.250Z,17.20
2019-04-19T18:22:15.282Z,17.00
2019-04-19T18:24:40.417Z,17.00
2019-04-19T18:27:09.085Z,16.90
2019-04-19T18:29:38.040Z,16.80
2019-04-19T18:32:25.938Z,16.80
2019-04-19T18:34:55.933Z,16.60
2019-04-19T18:37:29.622Z,16.50
2019-04-19T18:39:56.349Z,16.40
2019-04-19T18:42:26.038Z,16.40
2019-04-19T18:44:59.437Z,16.30
2019-04-19T18:47:27.135Z,16.10
2019-04-19T18:49:57.372Z,16.00
2019-04-19T18:52:38.381Z,15.90
2019-04-19T18:55:05.020Z,15.80
2019-04-19T18:57:33.924Z,15.60
2019-04-19T19:00:02.125Z,15.60
2019-04-19T19:02:32.292Z,15.50
2019-04-19T19:05:05.660Z,15.50
2019-04-19T19:07:34.682Z,15.50
2019-04-19T19:10:06.275Z,15.40
2019-04-19T19:12:41.442Z,15.30
2019-04-19T19:15:08.349Z,15.20
2019-04-19T19:17:38.144Z,15.10
2019-04-19T19:20:16.915Z,15.10
2019-04-19T19:23:00.199Z,15.00
2019-04-19T19:25:33.102Z,14.90
2019-04-19T19:27:50.419Z,14.80
2019-04-19T19:30:21.004Z,14.80
2019-04-19T19:32:53.957Z,14.60
2019-04-19T19:35:24.759Z,14.60
2019-04-19T19:37:52.725Z,14.40
2019-04-19T19:40:29.597Z,14.30
2019-04-19T19:43:11.720Z,14.10
2019-04-19T19:45:41.475Z,14.00
2019-04-19T19:48:23.721Z,13.90
2019-04-19T19:50:51.818Z,13.90
2019-04-19T19:53:35.859Z,13.90
2019-04-19T19:56:02.956Z,13.80
2019-04-19T19:58:17.189Z,13.80
2019-04-19T20:00:55.608Z,13.70
2019-04-19T20:03:16.380Z,13.60
2019-04-19T20:05:40.865Z,13.60
2019-04-19T20:08:09.608Z,13.60
2019-04-19T20:10:44.088Z,13.60
2019-04-19T20:13:15.917Z,13.50
2019-04-19T20:15:45.983Z,13.50
2019-04-19T20:18:14.421Z,13.50
2019-04-19T20:20:44.440Z,13.40
2019-04-19T20:23:21.693Z,13.30
2019-04-19T20:25:54.825Z,13.20
2019-04-19T20:28:23.637Z,13.00
2019-04-19T20:30:50.649Z,12.80
2019-04-19T20:33:19.668Z,12.70
2019-04-19T20:35:54.633Z,12.60
2019-04-19T20:38:24.738Z,12.60
2019-04-19T20:40:58.307Z,12.30
2019-04-19T20:43:39.841Z,12.30
2019-04-19T20:45:56.306Z,12.30
2019-04-19T20:48:28.076Z,12.20
2019-04-19T20:51:06.449Z,12.20
2019-04-19T20:53:38.197Z,12.10
2019-04-19T20:56:54.993Z,12.10
2019-04-19T20:58:52.560Z,11.90
2019-04-19T21:01:18.828Z,11.90
2019-04-19T21:03:49.758Z,11.80
2019-04-19T21:06:28.705Z,11.80
2019-04-19T21:08:52.675Z,11.80
2019-04-19T21:11:21.851Z,11.80
2019-04-19T21:13:56.711Z,11.70
2019-04-19T21:16:25.507Z,11.70
2019-04-19T21:18:56.869Z,11.60
2019-04-19T21:21:24.392Z,11.60
2019-04-19T21:24:00.509Z,11.60
2019-04-19T21:26:29.271Z,11.50
2019-04-19T21:28:58.060Z,11.40
2019-04-19T21:31:36.058Z,11.30
2019-04-19T21:34:02.934Z,11.20
2019-04-19T21:36:36.937Z,11.10
2019-04-19T21:39:06.464Z,11.20
2019-04-19T21:41:35.373Z,11.20
2019-04-19T21:44:04.829Z,11.20
2019-04-19T21:46:35.178Z,11.20
2019-04-19T21:49:08.993Z,11.20
2019-04-19T21:51:37.744Z,11.20
2019-04-19T21:54:08.253Z,11.20
2019-04-19T21:56:43.841Z,11.20
2019-04-19T21:59:11.106Z,11.10
2019-04-19T22:01:46.640Z,11.10
2019-04-19T22:04:15.719Z,11.00
2019-04-19T22:06:53.672Z,10.90
2019-04-19T22:09:21.767Z,10.90
2019-04-19T22:11:50.246Z,10.80
2019-04-19T22:14:24.859Z,10.70
2019-04-19T22:16:52.593Z,10.60
2019-04-19T22:19:27.955Z,10.60
2019-04-19T22:21:53.608Z,10.40
2019-04-19T22:24:31.105Z,10.40
2019-04-19T22:26:57.504Z,10.30
2019-04-19T22:29:27.432Z,10.30
2019-04-19T22:32:04.801Z,10.20
2019-04-19T22:34:28.595Z,10.10
2019-04-19T22:37:01.312Z,10.10
2019-04-19T22:39:29.715Z,10.10
2019-04-19T22:42:01.921Z,10.10
2019-04-19T22:44:32.483Z,10.00
2019-04-19T22:47:02.266Z,10.00
2019-04-19T22:49:33.959Z,9.90
2019-04-19T22:52:02.801Z,9.70
2019-04-19T22:54:32.883Z,9.70
2019-04-19T22:57:12.026Z,9.70
2019-04-19T22:59:33.845Z,9.70
2019-04-19T23:02:36.461Z,9.70
2019-04-19T23:05:03.161Z,9.70
2019-04-19T23:07:40.051Z,9.60
2019-04-19T23:10:06.528Z,9.60
2019-04-19T23:12:37.620Z,9.60
2019-04-19T23:15:15.708Z,9.60
2019-04-19T23:17:42.645Z,9.50
2019-04-19T23:20:13.727Z,9.40
2019-04-19T23:22:44.540Z,9.40
2019-04-19T23:25:15.591Z,9.40
2019-04-19T23:27:49.737Z,9.40
2019-04-19T23:30:22.306Z,9.40
2019-04-19T23:32:50.437Z,9.40
2019-04-19T23:35:28.577Z,9.50
2019-04-19T23:37:53.510Z,9.40
2019-04-19T23:40:29.364Z,9.30
2019-04-19T23:42:55.532Z,9.10
2019-04-19T23:45:32.969Z,8.90
2019-04-19T23:47:58.184Z,8.80
2019-04-19T23:50:32.592Z,8.80
2019-04-19T23:53:00.931Z,8.80
2019-04-19T23:55:30.570Z,8.70
2019-04-19T23:58:01.332Z,8.60
